Latest Weather Observations for Mawson*

IDT60801

Issued at 6:01 pm EDT Wednesday 4 March 2015 (issued every 30 minutes, with the page automatically refreshed every 10 minutes)

About weather observations | Map of weather stations | Latest weather observations for ANT | Other Formats
Station Details ID: 300001 Name: MAWSON Lat: -67.60 Lon: 62.88 Height: 9.9 m
Data from the previous 72 hours. | See also: Recent months at Mawson*
Date/Time
EDT
Temp
°C
App
Temp
°C
Dew
Point
Rel
Hum
%
Delta-T
°C
Wind Press
QNH
hPa
Press
MSL
hPa
Rain
since 9 am
mm
Dir
 
Spd
km/h
Gust
km/h
Spd
kts
Gust
kts
04/06:00pm -8.3 -18.9 -19.7 39 - SE 37 46 20 25 988.1 - -
04/05:30pm -9.7 -22.0 -18.6 48 - SE 46 56 25 30 988.4 - -
04/05:27pm -9.5 -21.8 -18.2 49 - ESE 46 54 25 29 988.6 - -
04/05:00pm -9.2 -19.4 -19.7 42 - SSE 35 46 19 25 988.8 989.0 -
04/04:30pm -10.4 -23.5 -21.1 41 - SE 50 59 27 32 988.5 - -
04/04:00pm -10.9 -23.2 -20.2 46 - SE 46 61 25 33 988.7 - -
04/03:30pm -11.1 -22.1 -19.9 48 - SE 39 50 21 27 989.7 - -
04/03:25pm -11.1 -22.9 -20.9 44 - SSE 43 50 23 27 989.6 - -
04/03:15pm -11.6 -25.5 -21.1 45 - ESE 54 63 29 34 989.2 - -
04/03:00pm -10.0 -21.1 -22.2 36 - SSE 39 54 21 29 989.3 - -
04/02:46pm -11.7 -23.7 -22.0 42 - SSE 44 50 24 27 989.6 - -
04/02:30pm -10.5 -23.3 -22.3 37 - SE 48 61 26 33 989.7 - -
04/02:28pm -11.2 -25.1 -21.3 43 - SE 54 61 29 33 989.7 - -
04/02:00pm -13.3 -28.2 -21.9 48 - SSE 59 78 32 42 990.4 990.6 -
04/01:31pm -13.7 -26.5 -22.8 46 - SSE 48 70 26 38 990.1 - -
04/01:30pm -13.6 -26.0 -22.7 46 - SSE 46 61 25 33 990.1 - -
04/01:00pm -13.8 -27.0 -23.1 45 - SSE 50 59 27 32 990.0 - -
04/12:34pm -14.2 -28.1 -23.2 46 - SSE 54 74 29 40 990.1 - -
04/12:30pm -13.7 -26.9 -23.8 42 - SSE 50 67 27 36 989.9 - -
04/12:00pm -14.5 -28.1 -22.8 49 - SSE 52 61 28 33 990.4 - -
04/11:30am -14.3 -27.5 -22.6 49 - SSE 50 59 27 32 990.6 - -
04/11:00am -13.2 -24.7 -22.3 46 - SSE 41 46 22 25 990.9 991.1 -
04/10:30am -13.5 -25.9 -22.4 47 - SSE 46 54 25 29 990.9 - -
04/10:00am -13.9 -25.7 -22.0 50 - SSE 43 56 23 30 991.1 - -
04/09:30am -13.8 -25.6 -22.6 47 - SSE 43 54 23 29 991.0 - -
04/09:23am -13.4 -24.9 -22.3 47 - SSE 41 44 22 24 991.0 - -
04/09:00am -14.0 -28.9 -22.1 50 - SSE 59 70 32 38 991.1 - -
04/08:30am -14.6 -29.5 -22.2 52 - SSE 59 70 32 38 991.1 - -
04/08:00am -14.8 -30.8 -21.8 55 - SSE 65 74 35 40 991.4 991.6 -
04/07:30am -14.8 -30.8 -20.8 60 - SSE 65 74 35 40 991.4 - -
04/07:00am -14.0 -28.4 -21.0 55 - SSE 57 69 31 37 991.4 - -
04/06:30am -14.2 -29.4 -20.8 57 - SSE 61 72 33 39 991.5 - -
04/06:00am -14.1 -29.3 -20.5 58 - SSE 61 69 33 37 991.6 - -
04/05:30am -13.6 -28.0 -20.1 58 - SSE 57 67 31 36 992.0 - -
04/05:00am -13.3 -28.1 -19.6 59 - SSE 59 72 32 39 992.2 992.4 -
04/04:30am -12.2 -26.0 -19.8 53 - SSE 54 63 29 34 992.5 - -
04/04:03am -11.5 -23.8 -19.8 50 - S 46 52 25 28 992.6 - -
04/04:00am -11.3 -23.6 -19.4 51 - SE 46 57 25 31 992.5 - -
04/03:30am -11.6 -25.8 -18.6 56 - SE 56 65 30 35 992.6 - -
04/03:00am -10.8 -24.6 -19.6 48 - SE 54 69 29 37 992.5 - -
04/02:30am -10.1 -22.4 -19.7 45 - SE 46 59 25 32 992.6 - -
04/02:00am -9.6 -19.7 -17.4 53 - SE 35 54 19 29 992.6 992.8 -
04/01:42am -9.0 -19.3 -20.7 38 - SE 35 54 19 29 992.7 - -
04/01:30am -9.1 -19.3 -18.1 48 - SE 35 44 19 24 992.7 - -
04/01:00am -8.9 -19.1 -19.2 43 - SE 35 44 19 24 992.6 - -
04/12:32am -9.0 -18.6 -18.0 48 - SE 32 50 17 27 992.8 - -
04/12:30am -9.0 -18.8 -18.2 47 - SE 33 50 18 27 992.9 - -
04/12:27am -8.9 -18.5 -18.6 45 - SE 32 50 17 27 992.7 - -
04/12:00am -9.0 -19.1 -17.7 49 - ESE 35 48 19 26 992.8 - -
 
Date/Time
EDT
Temp
°C
App
Temp
°C
Dew
Point
Rel
Hum
%
Delta-T
°C
Wind Press
QNH
hPa
Press
MSL
hPa
Rain
since 9 am
mm
Dir
 
Spd
km/h
Gust
km/h
Spd
kts
Gust
kts
03/11:30pm -9.0 -19.9 -17.7 49 - SE 39 46 21 25 992.7 - -
03/11:00pm -9.1 -20.0 -18.1 48 - SE 39 50 21 27 992.8 993.0 -
03/10:30pm -9.2 -20.8 -17.2 52 - SE 43 56 23 30 992.9 - -
03/10:00pm -9.4 -21.2 -17.0 54 - SE 44 56 24 30 992.9 - -
03/09:30pm -9.4 -21.2 -17.0 54 - SE 44 57 24 31 993.1 - -
03/09:14pm -9.8 -21.6 -15.5 63 - SE 44 63 24 34 992.8 - -
03/09:00pm -9.9 -22.0 -15.0 66 - SE 46 59 25 32 992.8 - -
03/08:30pm -10.2 -22.7 -15.5 65 - SE 48 65 26 35 992.8 - -
03/08:00pm -9.1 -21.0 -17.8 49 - SE 44 54 24 29 992.8 993.0 -
03/07:30pm -9.6 -19.6 -15.5 62 - SSE 35 43 19 23 992.8 - -
03/07:00pm -9.7 -20.1 -14.3 69 - SSE 37 46 20 25 992.8 - -
03/06:30pm -9.4 -19.0 -14.2 68 - SSE 33 43 18 23 992.7 - -
03/06:00pm -8.9 -20.0 -14.8 62 - SSE 41 50 22 27 992.6 - -
03/05:30pm -8.8 -20.6 -16.2 55 - SSE 44 57 24 31 992.3 - -
03/05:00pm -8.6 -21.2 -17.8 47 - SSE 48 59 26 32 992.3 992.5 -
03/04:30pm -8.8 -20.6 -15.7 57 - SE 44 56 24 30 992.3 - -
03/04:00pm -8.9 -21.0 -15.6 58 - SSE 46 61 25 33 992.3 - -
03/03:30pm -9.6 -21.7 -15.5 62 - SSE 46 59 25 32 992.2 - -
03/03:00pm -9.2 -21.3 -14.4 66 - SSE 46 57 25 31 992.0 - -
03/02:30pm -9.5 -20.2 -13.6 72 - SSE 39 44 21 24 992.1 - -
03/02:00pm -9.9 -24.0 -13.6 74 - SE 57 67 31 36 991.4 991.6 -
03/01:30pm -9.7 -24.2 -13.4 74 - SE 59 69 32 37 991.3 - -
03/01:00pm -9.6 -23.1 -13.5 73 - SSE 54 67 29 36 991.8 - -
03/12:30pm -9.7 -22.1 -13.8 72 - SSE 48 57 26 31 991.7 - -
03/12:00pm -9.4 -21.5 -14.0 69 - SSE 46 67 25 36 991.4 - -
03/11:47am -8.8 -21.2 -12.7 73 - SSE 48 69 26 37 991.6 - -
03/11:30am -9.1 -21.1 -13.9 68 - SSE 46 59 25 32 991.8 - -
03/11:17am -8.9 -20.5 -13.5 69 - SSE 44 63 24 34 991.8 - -
03/11:00am -8.9 -22.1 -13.7 68 - SE 52 59 28 32 991.6 991.8 -
03/10:30am -9.4 -23.0 -14.2 68 - SE 54 67 29 36 991.8 - -
03/10:00am -8.7 -21.8 -13.2 70 - SE 52 69 28 37 991.8 - -
03/09:55am -8.7 -21.5 -13.2 70 - SE 50 69 27 37 991.7 - -
03/09:30am -8.4 -21.2 -13.4 67 - SSE 50 63 27 34 991.9 - -
03/09:00am -7.5 -19.0 -14.1 59 - SE 43 54 23 29 991.8 - -
03/08:30am -7.6 -20.5 -16.0 51 - SSE 50 57 27 31 991.8 - -
03/08:00am -8.5 -21.9 -17.5 48 - SE 52 61 28 33 991.7 991.9 -
03/07:30am -7.7 -19.9 -17.3 46 - SE 46 56 25 30 991.7 - -
03/07:00am -7.6 -18.4 -16.4 49 - SSE 39 46 21 25 992.1 - -
03/06:30am -7.4 -19.2 -16.2 49 - SSE 44 56 24 30 991.8 - -
03/06:00am -7.4 -19.2 -15.5 52 - SE 44 50 24 27 991.7 - -
03/05:30am -7.5 -18.6 -14.5 57 - SE 41 48 22 26 991.7 - -
03/05:00am -7.7 -19.2 -14.9 56 - SE 43 46 23 25 991.7 991.9 -
03/04:30am -7.9 -18.7 -14.5 59 - SE 39 43 21 23 991.7 - -
03/04:00am -7.9 -18.3 -14.5 59 - SE 37 43 20 23 991.5 - -
03/03:30am -7.7 -17.7 -14.7 57 - SE 35 39 19 21 991.5 - -
03/03:00am -7.2 -16.6 -14.5 56 - SE 32 35 17 19 991.5 - -
03/02:30am -6.9 -15.9 -13.3 60 - SE 30 33 16 18 991.5 - -
03/02:00am -6.7 -14.5 -12.0 66 - SE 24 28 13 15 991.5 991.7 -
03/01:30am -6.0 -13.0 -12.1 62 - ESE 20 24 11 13 991.5 - -
03/01:00am -5.5 -12.3 -12.4 58 - ESE 19 20 10 11 991.5 - -
03/12:30am -5.5 -12.3 -12.6 57 - ESE 19 22 10 12 991.4 - -
03/12:00am -5.4 -12.5 -13.4 53 - ESE 20 24 11 13 991.3 - -
 
Date/Time
EDT
Temp
°C
App
Temp
°C
Dew
Point
Rel
Hum
%
Delta-T
°C
Wind Press
QNH
hPa
Press
MSL
hPa
Rain
since 9 am
mm
Dir
 
Spd
km/h
Gust
km/h
Spd
kts
Gust
kts
02/11:30pm -5.2 -12.7 -14.2 49 - ESE 22 28 12 15 991.1 - -
02/11:00pm -5.1 -12.7 -15.2 45 - ESE 22 30 12 16 990.9 991.1 -
02/10:30pm -4.9 -13.6 -14.7 46 - ESE 28 33 15 18 991.0 - -
02/10:00pm - - - - - - 20 26 11 14 - - -
02/09:30pm - - - - - SE 20 26 11 14 - - -
02/09:00pm -3.3 -9.2 -17.2 33 - SSW 13 17 7 9 990.7 - -
02/08:30pm -4.0 -9.0 -21.1 25 - ESE 7 13 4 7 990.5 - -
02/08:00pm -3.7 -9.3 -17.9 32 - SE 11 15 6 8 990.5 990.7 -
02/07:00pm -4.4 -12.4 -17.5 35 - E 24 30 13 16 990.4 - -
02/06:30pm -5.0 -14.6 -18.4 34 - SE 32 39 17 21 990.0 - -
02/06:00pm -5.1 -15.6 -16.9 39 - SE 37 46 20 25 989.7 - -
02/05:30pm -5.4 -15.9 -17.1 39 - SE 37 46 20 25 989.4 - -
02/05:00pm -4.8 -14.0 -18.6 33 - ESE 30 37 16 20 989.5 989.7 -
02/04:30pm -7.1 -17.2 -17.0 45 - SSE 35 43 19 23 989.3 - -
02/04:00pm -7.3 -16.9 -17.4 44 - SSE 32 39 17 21 989.3 - -
02/03:30pm -8.1 -19.7 -16.7 50 - SSE 43 52 23 28 989.0 - -
02/03:00pm -8.4 -21.8 -17.7 47 - SSE 52 57 28 31 988.5 - -
02/02:30pm -8.6 -21.2 -17.8 47 - SSE 48 54 26 29 988.5 - -
02/02:00pm -9.0 -22.0 -18.7 45 - SSE 50 57 27 31 988.4 988.6 -
02/01:30pm -8.5 -19.1 -19.3 41 - SSE 37 46 20 25 988.2 - -
02/01:00pm -7.7 -19.5 -20.5 35 - SSE 43 52 23 28 988.0 - -
02/12:30pm -9.6 -22.7 -19.5 44 - SSE 50 61 27 33 987.7 - -
02/12:00pm -9.4 -22.1 -18.6 47 - S 48 56 26 30 987.8 - -
02/11:30am -9.5 -23.3 -18.9 46 - SSE 54 69 29 37 987.6 - -
02/11:00am -8.5 -22.0 -19.6 40 - S 52 63 28 34 987.4 987.6 -
02/10:30am -8.9 -22.7 -18.4 46 - S 54 65 29 35 987.1 - -
02/10:11am -8.4 -22.6 -18.7 43 - SSE 56 74 30 40 986.6 - -
02/10:00am -8.2 -23.0 -18.8 42 - SSE 59 72 32 39 986.2 - -
02/09:30am -8.8 -23.5 -17.5 49 - SSE 59 70 32 38 986.0 - -
02/09:00am -7.8 -20.8 -17.4 46 - SSE 50 61 27 33 986.1 - -
02/08:30am -5.4 -17.7 -19.8 31 - SSE 46 61 25 33 986.0 - -
02/08:01am -6.8 -20.6 -17.8 41 - SSE 54 72 29 39 985.7 - -
02/08:00am -6.6 -20.7 -17.9 40 - SE 56 72 30 39 985.4 985.6 -
02/07:35am -6.4 -20.5 -17.4 41 - SE 56 74 30 40 985.2 - -
02/07:30am -6.0 -19.7 -17.4 40 - SSE 54 70 29 38 985.3 - -
02/07:00am -5.2 -19.0 -18.2 35 - SSE 54 72 29 39 984.8 - -
02/06:59am -5.2 -19.3 -17.9 36 - SSE 56 74 30 40 984.8 - -
02/06:30am -6.1 -19.8 -16.9 42 - SSE 54 63 29 34 984.7 - -
02/06:00am -5.8 -18.7 -15.5 46 - SSE 50 65 27 35 984.7 - -
02/05:30am -5.1 -17.6 -16.0 42 - SSE 48 59 26 32 984.6 - -
02/05:00am -5.3 -18.6 -15.9 43 - SSE 52 61 28 33 984.2 984.4 -
02/04:30am -4.0 -17.7 -16.8 36 - SE 54 69 29 37 984.2 - -
02/04:25am -3.6 -16.6 -17.5 33 - SSE 50 69 27 37 984.1 - -
02/04:19am -4.4 -16.6 -15.9 40 - SSE 46 59 25 32 984.4 - -
02/04:13am -3.0 -17.2 -19.3 27 - SE 56 74 30 40 984.4 - -
02/04:00am -3.1 -17.3 -18.6 29 - SE 56 69 30 37 984.4 - -
02/03:30am -3.6 -16.9 -16.8 35 - SE 52 78 28 42 984.3 - -
02/03:23am -3.2 -16.2 -17.5 32 - SE 50 78 27 42 984.1 - -
02/03:00am -3.3 -16.7 -17.6 32 - SE 52 63 28 34 984.3 - -
02/02:41am -3.3 -17.1 -18.4 30 - SE 54 76 29 41 983.8 - -
02/02:30am -4.2 -17.1 -15.7 40 - SE 50 65 27 35 984.5 - -
02/02:00am -4.2 -18.4 -16.0 39 - SE 57 70 31 38 984.4 984.6 -
02/01:30am -4.5 -20.2 -15.4 42 - SE 65 76 35 41 984.2 - -
02/01:00am -4.3 -20.0 -15.5 41 - SE 65 83 35 45 984.2 - -
02/12:30am -3.8 -20.0 -16.3 37 - SE 67 87 36 47 984.2 - -
02/12:19am -4.2 -19.9 -14.9 43 - SE 65 83 35 45 984.2 - -
02/12:00am -3.9 -20.6 -15.5 40 - SE 70 85 38 46 984.2 - -
 
Date/Time
EDT
Temp
°C
App
Temp
°C
Dew
Point
Rel
Hum
%
Delta-T
°C
Wind Press
QNH
hPa
Press
MSL
hPa
Rain
since 9 am
mm
Dir
 
Spd
km/h
Gust
km/h
Spd
kts
Gust
kts
01/11:30pm -4.1 -20.2 -14.8 43 - SE 67 87 36 47 984.0 - -
01/11:02pm -3.8 -19.5 -15.4 40 - SE 65 85 35 46 984.1 - -

Other Formats:

Comma delimited format used in spreadsheet applications
http://www.bom.gov.au/fwo/IDT60803/IDT60803.89564.axf

JavaScript Object Notation format (JSON) in row-major order
http://www.bom.gov.au/fwo/IDT60803/IDT60803.89564.json